createdAt,value
2024-01-08T00:01:01.614Z,99.90
2024-01-08T00:03:43.637Z,99.90
2024-01-08T00:06:33.567Z,99.90
2024-01-08T00:09:06.293Z,99.90
2024-01-08T00:11:35.030Z,99.90
2024-01-08T00:14:05.924Z,99.90
2024-01-08T00:16:35.086Z,99.90
2024-01-08T00:19:08.043Z,99.90
2024-01-08T00:21:36.989Z,99.90
2024-01-08T00:24:06.241Z,99.90
2024-01-08T00:26:35.021Z,99.90
2024-01-08T01:30:45.003Z,99.90
2024-01-08T01:33:16.669Z,99.90
2024-01-08T01:35:45.315Z,99.90
2024-01-08T01:38:16.681Z,99.90
2024-01-08T01:40:47.888Z,99.90
2024-01-08T01:43:23.283Z,99.90
2024-01-08T01:45:53.808Z,99.90
2024-01-08T01:48:22.595Z,99.90
2024-01-08T01:50:51.309Z,99.90
2024-01-08T01:53:20.052Z,99.90
2024-01-08T01:55:51.407Z,99.90
2024-01-08T01:58:22.921Z,99.90
2024-01-08T02:00:53.394Z,99.90
2024-01-08T02:03:22.350Z,99.90
2024-01-08T02:14:21.949Z,99.90
2024-01-08T02:17:15.930Z,99.90
2024-01-08T02:20:25.187Z,99.90
2024-01-08T02:23:12.054Z,99.90
2024-01-08T02:32:33.385Z,99.90
2024-01-08T02:38:51.678Z,99.90
2024-01-08T02:44:38.659Z,99.90
2024-01-08T04:01:54.434Z,99.90
2024-01-08T04:07:39.429Z,99.90
2024-01-08T04:13:27.353Z,99.90
2024-01-08T04:16:06.111Z,99.90
2024-01-08T04:18:35.988Z,99.90
2024-01-08T04:42:48.571Z,99.90
2024-01-08T04:45:19.699Z,99.90
2024-01-08T04:48:02.464Z,99.90
2024-01-08T04:50:32.713Z,99.90
2024-01-08T04:53:05.550Z,99.90
2024-01-08T04:55:44.921Z,99.90
2024-01-08T04:58:19.140Z,99.90
2024-01-08T05:01:08.248Z,99.90
2024-01-08T05:03:55.838Z,99.90
2024-01-08T05:06:36.587Z,99.90
2024-01-08T05:09:07.804Z,99.90
2024-01-08T05:11:36.661Z,99.90
2024-01-08T05:14:07.130Z,99.90
2024-01-08T05:23:19.051Z,99.90
2024-01-08T05:26:07.597Z,99.90
2024-01-08T05:28:36.896Z,99.90
2024-01-08T05:31:05.905Z,99.90
2024-01-08T05:33:34.550Z,99.90
2024-01-08T05:36:05.206Z,99.90
2024-01-08T05:38:33.681Z,99.90
2024-01-08T05:41:04.972Z,99.90
2024-01-08T05:43:39.001Z,99.90
2024-01-08T05:46:08.911Z,99.90
2024-01-08T05:48:40.041Z,99.90
2024-01-08T05:51:08.888Z,99.90
2024-01-08T05:53:38.049Z,99.90
2024-01-08T05:56:11.625Z,99.90
2024-01-08T05:58:41.703Z,99.90
2024-01-08T06:01:10.828Z,99.90
2024-01-08T06:27:27.001Z,99.90
2024-01-08T06:30:15.014Z,99.90
2024-01-08T06:39:52.847Z,99.90
2024-01-08T06:42:47.276Z,99.90
2024-01-08T06:48:28.458Z,99.90
2024-01-08T06:51:00.804Z,99.90
2024-01-08T06:53:30.046Z,99.90
2024-01-08T06:56:03.149Z,99.90
2024-01-08T06:58:34.009Z,99.90
2024-01-08T07:01:04.225Z,99.90
2024-01-08T07:03:33.273Z,99.90
2024-01-08T07:06:04.030Z,99.90
2024-01-08T07:14:29.560Z,99.90
2024-01-08T07:16:58.115Z,99.90
2024-01-08T07:19:26.626Z,99.90
2024-01-08T07:21:55.638Z,99.90
2024-01-08T07:24:24.248Z,99.90
2024-01-08T07:26:54.256Z,99.90
2024-01-08T07:29:23.362Z,99.90
2024-01-08T07:31:51.712Z,99.90
2024-01-08T07:34:20.658Z,99.90
2024-01-08T07:36:49.050Z,99.90
2024-01-08T07:39:17.643Z,99.90
2024-01-08T07:41:46.625Z,99.90
2024-01-08T07:44:16.744Z,99.90
2024-01-08T07:46:45.357Z,99.90
2024-01-08T07:49:14.043Z,99.90
2024-01-08T07:51:42.494Z,99.90
2024-01-08T07:54:10.837Z,99.90
2024-01-08T07:56:48.959Z,99.90
2024-01-08T07:59:23.831Z,99.90
2024-01-08T08:01:52.373Z,99.90
2024-01-08T08:04:20.901Z,99.90
2024-01-08T08:06:49.662Z,99.90
2024-01-08T08:09:18.150Z,99.90
2024-01-08T08:11:46.707Z,99.90
2024-01-08T08:14:15.377Z,99.90
2024-01-08T08:16:45.285Z,99.90
2024-01-08T08:19:14.023Z,99.90
2024-01-08T08:21:42.612Z,99.90
2024-01-08T08:24:13.862Z,99.90
2024-01-08T08:26:42.489Z,99.90
2024-01-08T08:29:12.462Z,99.90
2024-01-08T08:31:42.032Z,99.90
2024-01-08T08:34:15.727Z,99.90
2024-01-08T08:36:44.261Z,99.90
2024-01-08T08:39:16.477Z,99.90
2024-01-08T08:41:45.089Z,99.90
2024-01-08T08:44:18.202Z,99.90
2024-01-08T08:46:48.053Z,99.90
2024-01-08T08:49:18.196Z,99.90
2024-01-08T08:51:46.733Z,99.90
2024-01-08T08:54:15.358Z,99.90
2024-01-08T08:56:46.204Z,99.90
2024-01-08T08:59:15.707Z,99.90
2024-01-08T09:01:44.126Z,99.90
2024-01-08T09:04:14.353Z,99.90
2024-01-08T09:06:44.606Z,99.90
2024-01-08T09:09:15.900Z,99.90
2024-01-08T09:11:44.406Z,99.90
2024-01-08T09:14:12.933Z,99.90
2024-01-08T09:16:41.374Z,99.90
2024-01-08T09:19:09.965Z,99.90
2024-01-08T09:21:39.367Z,99.90
2024-01-08T09:24:09.722Z,99.90
2024-01-08T09:26:38.127Z,99.90
2024-01-08T09:29:08.383Z,99.90
2024-01-08T09:31:37.418Z,99.90
2024-01-08T09:34:10.198Z,99.90
2024-01-08T09:36:39.179Z,99.90
2024-01-08T09:39:10.827Z,99.90
2024-01-08T09:41:40.302Z,99.90
2024-01-08T09:44:09.116Z,99.90
2024-01-08T09:46:44.605Z,99.90
2024-01-08T09:49:13.586Z,99.90
2024-01-08T09:51:45.927Z,99.90
2024-01-08T09:54:17.592Z,99.90
2024-01-08T09:56:52.938Z,99.90
2024-01-08T10:02:23.526Z,99.90
2024-01-08T10:04:52.504Z,99.90
2024-01-08T10:07:21.306Z,99.90
2024-01-08T10:09:57.235Z,95.90
2024-01-08T10:12:31.189Z,92.30
2024-01-08T10:15:18.941Z,96.20
2024-01-08T10:17:50.396Z,96.90
2024-01-08T10:20:23.396Z,93.60
2024-01-08T10:23:06.679Z,92.70
2024-01-08T10:25:41.119Z,95.50
2024-01-08T10:28:14.458Z,95.30
2024-01-08T10:34:05.399Z,98.90
2024-01-08T10:36:57.640Z,95.20
2024-01-08T10:39:43.197Z,99.40
2024-01-08T10:42:42.911Z,93.10
2024-01-08T10:45:19.098Z,88.20
2024-01-08T10:51:09.218Z,95.40
2024-01-08T10:54:05.450Z,99.50
2024-01-08T10:56:43.480Z,99.90
2024-01-08T10:59:22.565Z,99.40
2024-01-08T11:01:59.768Z,92.80
2024-01-08T11:24:47.408Z,78.00
2024-01-08T11:27:24.847Z,78.20
2024-01-08T11:30:10.914Z,83.10
2024-01-08T11:33:10.463Z,82.10
2024-01-08T11:36:02.452Z,78.60
2024-01-08T11:38:36.587Z,71.30
2024-01-08T11:41:12.812Z,72.70
2024-01-08T11:43:58.505Z,77.70
2024-01-08T11:46:28.088Z,74.50
2024-01-08T11:49:23.901Z,74.40
2024-01-08T11:51:55.379Z,75.50
2024-01-08T11:54:25.181Z,77.90
2024-01-08T11:56:55.241Z,75.50
2024-01-08T11:59:45.817Z,75.10
2024-01-08T12:02:53.600Z,74.20
2024-01-08T12:08:49.649Z,73.70
2024-01-08T12:11:22.833Z,72.10
2024-01-08T12:13:57.386Z,70.50
2024-01-08T12:22:59.063Z,72.90
2024-01-08T12:25:41.059Z,71.20
2024-01-08T12:28:10.990Z,76.50
2024-01-08T12:30:41.895Z,75.80
2024-01-08T12:33:12.854Z,74.30
2024-01-08T12:35:41.531Z,72.30
2024-01-08T12:38:20.395Z,78.70
2024-01-08T12:40:54.075Z,82.20
2024-01-08T12:43:24.844Z,80.80
2024-01-08T12:49:04.291Z,83.60
2024-01-08T12:51:39.252Z,75.90
2024-01-08T12:54:29.060Z,82.60
2024-01-08T12:59:57.900Z,75.30
2024-01-08T13:02:32.151Z,75.70
2024-01-08T13:05:03.988Z,72.90
2024-01-08T13:07:38.694Z,76.00
2024-01-08T13:10:10.752Z,74.30
2024-01-08T13:16:19.455Z,69.20
2024-01-08T13:18:49.975Z,70.10
2024-01-08T13:21:34.737Z,73.00
2024-01-08T13:24:09.082Z,68.30
2024-01-08T13:26:45.635Z,70.30
2024-01-08T13:29:15.292Z,73.30
2024-01-08T13:31:49.107Z,73.30
2024-01-08T13:34:20.350Z,75.80
2024-01-08T13:37:10.117Z,78.70
2024-01-08T13:46:12.530Z,78.00
2024-01-08T13:48:47.514Z,78.70
2024-01-08T13:51:16.801Z,77.50
2024-01-08T13:53:52.889Z,81.10
2024-01-08T13:56:25.081Z,84.90
2024-01-08T13:58:57.429Z,75.20
2024-01-08T14:01:26.785Z,77.40
2024-01-08T14:03:55.811Z,80.40
2024-01-08T14:06:29.515Z,78.20
2024-01-08T14:09:00.386Z,81.70
2024-01-08T14:11:30.602Z,82.80
2024-01-08T14:14:10.296Z,84.50
2024-01-08T14:17:00.027Z,87.00
2024-01-08T14:19:37.812Z,91.00
2024-01-08T14:22:14.434Z,90.50
2024-01-08T14:24:46.473Z,94.50
2024-01-08T14:27:19.074Z,89.30
2024-01-08T14:29:56.770Z,88.00
2024-01-08T14:32:29.063Z,93.00
2024-01-08T14:35:12.503Z,91.60
2024-01-08T14:37:45.989Z,88.50
2024-01-08T14:40:34.844Z,92.80
2024-01-08T14:43:38.745Z,94.30
2024-01-08T14:46:16.892Z,95.10
2024-01-08T14:49:15.224Z,95.40
2024-01-08T14:51:56.414Z,96.90
2024-01-08T14:54:27.585Z,99.90
2024-01-08T14:56:56.842Z,99.90
2024-01-08T14:59:29.609Z,99.90
2024-01-08T15:02:42.664Z,98.50
2024-01-08T15:08:24.317Z,97.80
2024-01-08T15:10:58.975Z,98.10
2024-01-08T15:13:44.411Z,99.80
2024-01-08T15:16:13.842Z,99.90
2024-01-08T15:18:50.599Z,99.90
2024-01-08T15:21:26.055Z,99.90
2024-01-08T15:23:59.695Z,99.90
2024-01-08T15:26:31.099Z,99.90
2024-01-08T15:29:01.281Z,99.90
2024-01-08T15:31:31.710Z,99.90
2024-01-08T15:34:02.444Z,99.90
2024-01-08T15:36:32.521Z,99.90
2024-01-08T15:39:07.022Z,99.90
2024-01-08T15:41:35.959Z,99.90
2024-01-08T15:44:05.550Z,99.90
2024-01-08T15:46:42.007Z,99.90
2024-01-08T15:49:23.183Z,99.90
2024-01-08T15:52:05.908Z,99.90
2024-01-08T15:54:46.068Z,99.90
2024-01-08T15:57:35.457Z,99.90
2024-01-08T16:00:09.153Z,99.90
2024-01-08T16:02:48.387Z,99.90
2024-01-08T16:05:21.953Z,99.90
2024-01-08T16:08:00.654Z,99.90
2024-01-08T16:10:37.190Z,99.90
2024-01-08T16:13:23.248Z,99.90
2024-01-08T16:19:12.894Z,99.90
2024-01-08T16:21:51.166Z,99.90
2024-01-08T16:24:28.322Z,99.90
2024-01-08T16:27:06.197Z,99.90
2024-01-08T16:29:36.472Z,99.90
2024-01-08T16:32:16.168Z,99.90
2024-01-08T16:35:06.193Z,99.90
2024-01-08T16:37:58.206Z,99.90
2024-01-08T16:40:34.417Z,99.90
2024-01-08T16:43:34.801Z,99.90
2024-01-08T16:46:12.401Z,99.90
2024-01-08T16:49:09.092Z,99.90
2024-01-08T16:51:49.008Z,99.90
2024-01-08T16:54:21.976Z,99.90
2024-01-08T16:57:19.667Z,99.90
2024-01-08T16:59:57.370Z,99.90
2024-01-08T17:02:37.033Z,99.90
2024-01-08T17:05:26.724Z,99.90
2024-01-08T17:08:00.141Z,99.90
2024-01-08T17:10:35.398Z,99.90
2024-01-08T17:13:29.050Z,99.90
2024-01-08T17:16:01.805Z,99.90
2024-01-08T17:18:35.354Z,99.90
2024-01-08T17:21:26.802Z,99.90
2024-01-08T17:24:08.892Z,99.90
2024-01-08T17:26:51.019Z,99.90
2024-01-08T17:29:25.503Z,99.90
2024-01-08T17:32:07.697Z,99.90
2024-01-08T17:34:37.509Z,99.90
2024-01-08T17:37:10.024Z,99.90
2024-01-08T17:39:48.147Z,99.90
2024-01-08T17:42:17.749Z,99.90
2024-01-08T17:44:51.774Z,99.90
2024-01-08T17:47:24.081Z,99.90
2024-01-08T17:50:10.156Z,99.90
2024-01-08T17:52:45.248Z,99.90
2024-01-08T17:55:51.886Z,99.90
2024-01-08T17:58:44.938Z,99.90
2024-01-08T18:02:25.131Z,99.90
2024-01-08T18:04:52.000Z,99.90
2024-01-08T18:07:38.033Z,99.90
2024-01-08T18:10:20.248Z,99.90
2024-01-08T18:13:27.841Z,99.90
2024-01-08T18:19:25.097Z,99.90
2024-01-08T18:22:01.802Z,99.90
2024-01-08T18:24:45.067Z,99.90
2024-01-08T18:27:20.064Z,99.90
2024-01-08T18:30:00.950Z,99.90
2024-01-08T18:32:41.143Z,99.90
2024-01-08T18:35:19.138Z,99.90
2024-01-08T18:37:55.101Z,99.90
2024-01-08T18:40:30.179Z,99.90
2024-01-08T18:43:17.867Z,99.90
2024-01-08T18:45:55.847Z,99.90
2024-01-08T18:48:44.120Z,99.90
2024-01-08T18:51:17.486Z,99.90
2024-01-08T18:53:57.378Z,99.90
2024-01-08T18:56:39.470Z,99.90
2024-01-08T18:59:28.257Z,99.90
2024-01-08T19:02:08.268Z,99.90
2024-01-08T19:04:57.344Z,99.90
2024-01-08T19:07:32.601Z,99.90
2024-01-08T19:10:29.432Z,99.90
2024-01-08T19:13:16.239Z,99.90
2024-01-08T19:15:54.921Z,99.90
2024-01-08T19:18:35.294Z,99.90
2024-01-08T19:21:13.471Z,99.90
2024-01-08T19:24:02.643Z,99.90
2024-01-08T19:26:40.004Z,99.90
2024-01-08T19:29:18.826Z,99.90
2024-01-08T19:31:52.083Z,99.90
2024-01-08T19:34:27.445Z,99.90
2024-01-08T19:37:04.596Z,99.90
2024-01-08T19:39:36.880Z,99.90
2024-01-08T19:42:18.213Z,99.90
2024-01-08T19:44:48.130Z,99.90
2024-01-08T19:50:10.087Z,99.90
2024-01-08T19:52:56.550Z,99.90
2024-01-08T19:55:41.382Z,99.90
2024-01-08T19:58:21.204Z,99.90
2024-01-08T20:00:55.000Z,99.90
2024-01-08T20:03:43.585Z,99.90
2024-01-08T20:06:49.322Z,99.90
2024-01-08T20:09:48.697Z,99.90
2024-01-08T20:12:37.638Z,99.90
2024-01-08T20:15:55.525Z,99.90
2024-01-08T20:19:07.265Z,99.90
2024-01-08T20:25:29.703Z,99.90
2024-01-08T20:28:09.576Z,99.90
2024-01-08T20:30:45.907Z,99.90
2024-01-08T20:33:19.055Z,99.90
2024-01-08T20:35:59.866Z,99.90
2024-01-08T20:38:35.080Z,99.90
2024-01-08T20:41:10.767Z,99.90
2024-01-08T20:53:06.956Z,99.90
2024-01-08T20:55:53.881Z,99.90
2024-01-08T20:58:26.782Z,99.90
2024-01-08T21:03:49.203Z,99.90
2024-01-08T21:06:53.967Z,99.90
2024-01-08T21:15:54.793Z,99.90
2024-01-08T21:18:29.614Z,99.90
2024-01-08T21:21:27.217Z,99.90
2024-01-08T21:27:25.061Z,99.90
2024-01-08T21:38:59.404Z,99.90
2024-01-08T22:04:05.819Z,99.90
2024-01-08T22:06:40.158Z,99.90
2024-01-08T22:09:10.318Z,99.90
2024-01-08T22:11:41.533Z,99.90
2024-01-08T22:14:12.723Z,99.90
2024-01-08T22:17:09.849Z,99.90
2024-01-08T22:19:45.071Z,99.90
2024-01-08T22:22:22.678Z,99.90
2024-01-08T22:25:02.572Z,99.90
2024-01-08T22:27:40.237Z,99.90
2024-01-08T22:30:34.222Z,99.90
2024-01-08T22:33:07.732Z,99.90
2024-01-08T22:35:42.914Z,99.90
2024-01-08T22:38:13.465Z,99.90
2024-01-08T22:40:47.541Z,99.90
2024-01-08T22:43:17.476Z,99.90
2024-01-08T22:45:51.374Z,99.90
2024-01-08T22:48:25.609Z,99.90
2024-01-08T22:50:57.709Z,99.90
2024-01-08T22:53:28.548Z,99.90
2024-01-08T22:56:00.110Z,99.90
2024-01-08T22:58:56.181Z,99.90
2024-01-08T23:01:44.616Z,99.90
2024-01-08T23:04:24.832Z,99.90
2024-01-08T23:06:59.755Z,99.90
2024-01-08T23:09:29.292Z,99.90
2024-01-08T23:12:01.523Z,99.90
2024-01-08T23:14:31.307Z,99.90
2024-01-08T23:17:02.142Z,99.90
2024-01-08T23:19:33.215Z,99.90
2024-01-08T23:22:11.537Z,99.90
2024-01-08T23:24:43.397Z,99.90
2024-01-08T23:27:14.034Z,99.90
2024-01-08T23:29:43.276Z,99.90
2024-01-08T23:32:19.252Z,99.90
2024-01-08T23:34:55.343Z,99.90
2024-01-08T23:37:33.694Z,99.90
2024-01-08T23:40:08.334Z,99.90
2024-01-08T23:42:58.143Z,99.90
2024-01-08T23:52:15.369Z,99.90
2024-01-08T23:55:00.726Z,99.90
2024-01-08T23:57:35.981Z,99.90
